sensor_id;sensor_type;location;lat;lon;timestamp;temperature;humidity
21184;DHT22;18176;49.502;11.754;2022-08-19T00:01:08;18.50;99.90
21184;DHT22;18176;49.502;11.754;2022-08-19T00:05:05;18.40;99.90
21184;DHT22;18176;49.502;11.754;2022-08-19T00:09:05;18.40;99.90
21184;DHT22;18176;49.502;11.754;2022-08-19T00:13:04;18.40;99.90
21184;DHT22;18176;49.502;11.754;2022-08-19T00:17:03;18.40;99.90
21184;DHT22;18176;49.502;11.754;2022-08-19T00:21:01;18.40;99.90
21184;DHT22;18176;49.502;11.754;2022-08-19T00:24:58;18.40;99.90
21184;DHT22;18176;49.502;11.754;2022-08-19T00:28:57;18.40;99.90
21184;DHT22;18176;49.502;11.754;2022-08-19T00:32:54;18.40;99.90
21184;DHT22;18176;49.502;11.754;2022-08-19T00:36:51;18.40;99.90
21184;DHT22;18176;49.502;11.754;2022-08-19T00:40:49;18.40;99.90
21184;DHT22;18176;49.502;11.754;2022-08-19T00:44:47;18.40;99.90
21184;DHT22;18176;49.502;11.754;2022-08-19T00:48:44;18.50;99.90
21184;DHT22;18176;49.502;11.754;2022-08-19T00:52:44;18.50;99.90
21184;DHT22;18176;49.502;11.754;2022-08-19T00:56:44;18.60;99.90
21184;DHT22;18176;49.502;11.754;2022-08-19T01:00:43;18.60;99.90
21184;DHT22;18176;49.502;11.754;2022-08-19T01:04:41;18.60;99.90
21184;DHT22;18176;49.502;11.754;2022-08-19T01:08:38;18.60;99.90
21184;DHT22;18176;49.502;11.754;2022-08-19T01:12:36;18.70;99.90
21184;DHT22;18176;49.502;11.754;2022-08-19T01:16:35;18.60;99.90
21184;DHT22;18176;49.502;11.754;2022-08-19T01:20:34;18.60;99.90
21184;DHT22;18176;49.502;11.754;2022-08-19T01:24:31;18.70;99.90
21184;DHT22;18176;49.502;11.754;2022-08-19T01:28:32;18.60;99.90
21184;DHT22;18176;49.502;11.754;2022-08-19T01:32:37;18.60;99.90
21184;DHT22;18176;49.502;11.754;2022-08-19T01:36:43;18.60;99.90
21184;DHT22;18176;49.502;11.754;2022-08-19T01:40:43;18.60;99.90
21184;DHT22;18176;49.502;11.754;2022-08-19T01:44:41;18.60;99.90
21184;DHT22;18176;49.502;11.754;2022-08-19T01:48:41;18.60;99.90
21184;DHT22;18176;49.502;11.754;2022-08-19T01:52:42;18.60;99.90
21184;DHT22;18176;49.502;11.754;2022-08-19T01:56:40;18.70;99.90
21184;DHT22;18176;49.502;11.754;2022-08-19T02:00:37;18.70;99.90
21184;DHT22;18176;49.502;11.754;2022-08-19T02:04:36;18.70;99.90
21184;DHT22;18176;49.502;11.754;2022-08-19T02:08:38;18.70;99.90
21184;DHT22;18176;49.502;11.754;2022-08-19T02:12:35;18.80;99.90
21184;DHT22;18176;49.502;11.754;2022-08-19T02:16:33;18.80;99.90
21184;DHT22;18176;49.502;11.754;2022-08-19T02:20:31;18.80;99.90
21184;DHT22;18176;49.502;11.754;2022-08-19T02:24:28;18.80;99.90
21184;DHT22;18176;49.502;11.754;2022-08-19T02:28:25;18.70;99.90
21184;DHT22;18176;49.502;11.754;2022-08-19T02:32:23;18.70;99.90
21184;DHT22;18176;49.502;11.754;2022-08-19T02:36:20;18.80;99.90
21184;DHT22;18176;49.502;11.754;2022-08-19T02:40:17;18.70;99.90
21184;DHT22;18176;49.502;11.754;2022-08-19T02:44:14;18.70;99.90
21184;DHT22;18176;49.502;11.754;2022-08-19T02:48:26;18.70;99.90
21184;DHT22;18176;49.502;11.754;2022-08-19T02:52:23;18.70;99.90
21184;DHT22;18176;49.502;11.754;2022-08-19T02:56:24;18.70;99.90
21184;DHT22;18176;49.502;11.754;2022-08-19T03:00:23;18.70;99.90
21184;DHT22;18176;49.502;11.754;2022-08-19T03:04:20;18.70;99.90
21184;DHT22;18176;49.502;11.754;2022-08-19T03:08:17;18.70;99.90
21184;DHT22;18176;49.502;11.754;2022-08-19T03:12:17;18.70;99.90
21184;DHT22;18176;49.502;11.754;2022-08-19T03:16:14;18.70;99.90
21184;DHT22;18176;49.502;11.754;2022-08-19T03:20:11;18.60;99.90
21184;DHT22;18176;49.502;11.754;2022-08-19T03:24:08;18.60;99.90
21184;DHT22;18176;49.502;11.754;2022-08-19T03:28:05;18.70;99.90
21184;DHT22;18176;49.502;11.754;2022-08-19T03:32:05;18.60;99.90
21184;DHT22;18176;49.502;11.754;2022-08-19T03:36:08;18.60;99.90
21184;DHT22;18176;49.502;11.754;2022-08-19T03:40:08;18.60;99.90
21184;DHT22;18176;49.502;11.754;2022-08-19T03:44:10;18.60;99.90
21184;DHT22;18176;49.502;11.754;2022-08-19T03:48:14;18.50;99.90
21184;DHT22;18176;49.502;11.754;2022-08-19T03:52:13;18.60;99.90
21184;DHT22;18176;49.502;11.754;2022-08-19T03:56:11;18.60;99.90
21184;DHT22;18176;49.502;11.754;2022-08-19T04:00:09;18.60;99.90
21184;DHT22;18176;49.502;11.754;2022-08-19T04:04:09;18.60;99.90
21184;DHT22;18176;49.502;11.754;2022-08-19T04:08:06;18.50;99.90
21184;DHT22;18176;49.502;11.754;2022-08-19T04:12:09;18.50;99.90
21184;DHT22;18176;49.502;11.754;2022-08-19T04:16:06;18.50;99.90
21184;DHT22;18176;49.502;11.754;2022-08-19T04:20:04;18.50;99.90
21184;DHT22;18176;49.502;11.754;2022-08-19T04:24:03;18.50;99.90
21184;DHT22;18176;49.502;11.754;2022-08-19T04:28:01;18.50;99.90
21184;DHT22;18176;49.502;11.754;2022-08-19T04:31:58;18.50;99.90
21184;DHT22;18176;49.502;11.754;2022-08-19T04:36:05;18.50;99.90
21184;DHT22;18176;49.502;11.754;2022-08-19T04:40:04;18.60;99.90
21184;DHT22;18176;49.502;11.754;2022-08-19T04:44:21;18.50;99.90
21184;DHT22;18176;49.502;11.754;2022-08-19T04:48:18;18.50;99.90
21184;DHT22;18176;49.502;11.754;2022-08-19T04:52:24;18.50;99.90
21184;DHT22;18176;49.502;11.754;2022-08-19T04:56:21;18.60;99.90
21184;DHT22;18176;49.502;11.754;2022-08-19T05:00:19;18.60;99.90
21184;DHT22;18176;49.502;11.754;2022-08-19T05:04:18;18.60;99.90
21184;DHT22;18176;49.502;11.754;2022-08-19T05:08:19;18.70;99.90
21184;DHT22;18176;49.502;11.754;2022-08-19T05:12:29;18.70;99.90
21184;DHT22;18176;49.502;11.754;2022-08-19T05:16:27;18.90;99.90
21184;DHT22;18176;49.502;11.754;2022-08-19T05:20:24;19.00;99.90
21184;DHT22;18176;49.502;11.754;2022-08-19T05:24:40;19.10;99.90
21184;DHT22;18176;49.502;11.754;2022-08-19T05:28:57;19.20;99.90
21184;DHT22;18176;49.502;11.754;2022-08-19T05:32:56;19.30;99.90
21184;DHT22;18176;49.502;11.754;2022-08-19T05:36:56;19.30;99.90
21184;DHT22;18176;49.502;11.754;2022-08-19T05:40:57;19.40;99.90
21184;DHT22;18176;49.502;11.754;2022-08-19T05:44:56;19.50;99.90
21184;DHT22;18176;49.502;11.754;2022-08-19T05:48:54;19.50;99.90
21184;DHT22;18176;49.502;11.754;2022-08-19T05:52:53;19.60;99.90
21184;DHT22;18176;49.502;11.754;2022-08-19T05:56:51;19.50;99.90
21184;DHT22;18176;49.502;11.754;2022-08-19T06:00:49;19.40;99.90
21184;DHT22;18176;49.502;11.754;2022-08-19T06:04:46;19.50;99.90
21184;DHT22;18176;49.502;11.754;2022-08-19T06:08:43;19.50;99.90
21184;DHT22;18176;49.502;11.754;2022-08-19T06:12:48;19.60;99.90
21184;DHT22;18176;49.502;11.754;2022-08-19T06:16:45;19.70;99.90
21184;DHT22;18176;49.502;11.754;2022-08-19T06:20:42;19.70;99.90
21184;DHT22;18176;49.502;11.754;2022-08-19T06:24:51;19.70;99.90
21184;DHT22;18176;49.502;11.754;2022-08-19T06:28:50;19.80;99.90
21184;DHT22;18176;49.502;11.754;2022-08-19T06:32:47;20.20;99.90
21184;DHT22;18176;49.502;11.754;2022-08-19T06:36:47;20.60;99.90
21184;DHT22;18176;49.502;11.754;2022-08-19T06:40:46;20.90;99.90
21184;DHT22;18176;49.502;11.754;2022-08-19T06:44:45;21.00;99.90
21184;DHT22;18176;49.502;11.754;2022-08-19T06:48:48;20.90;99.90
21184;DHT22;18176;49.502;11.754;2022-08-19T06:52:46;21.00;99.90
21184;DHT22;18176;49.502;11.754;2022-08-19T06:56:47;21.00;99.90
21184;DHT22;18176;49.502;11.754;2022-08-19T07:00:44;20.90;99.90
21184;DHT22;18176;49.502;11.754;2022-08-19T07:04:41;20.80;99.90
21184;DHT22;18176;49.502;11.754;2022-08-19T07:08:38;20.70;99.90
21184;DHT22;18176;49.502;11.754;2022-08-19T07:12:39;20.60;99.90
21184;DHT22;18176;49.502;11.754;2022-08-19T07:16:37;20.50;99.90
21184;DHT22;18176;49.502;11.754;2022-08-19T07:20:40;20.60;99.90
21184;DHT22;18176;49.502;11.754;2022-08-19T07:24:38;20.70;99.90
21184;DHT22;18176;49.502;11.754;2022-08-19T07:28:47;20.90;99.90
21184;DHT22;18176;49.502;11.754;2022-08-19T07:32:48;21.00;99.90
21184;DHT22;18176;49.502;11.754;2022-08-19T07:36:49;21.20;99.90
21184;DHT22;18176;49.502;11.754;2022-08-19T07:40:46;21.40;99.90
21184;DHT22;18176;49.502;11.754;2022-08-19T07:44:43;21.20;99.90
21184;DHT22;18176;49.502;11.754;2022-08-19T07:48:48;21.30;99.90
21184;DHT22;18176;49.502;11.754;2022-08-19T07:52:47;21.20;99.90
21184;DHT22;18176;49.502;11.754;2022-08-19T07:56:46;21.20;99.90
21184;DHT22;18176;49.502;11.754;2022-08-19T08:00:51;21.10;99.90
21184;DHT22;18176;49.502;11.754;2022-08-19T08:04:48;21.10;99.90
21184;DHT22;18176;49.502;11.754;2022-08-19T08:09:05;21.20;99.90
21184;DHT22;18176;49.502;11.754;2022-08-19T08:13:12;21.10;99.90
21184;DHT22;18176;49.502;11.754;2022-08-19T08:17:10;21.30;99.90
21184;DHT22;18176;49.502;11.754;2022-08-19T08:21:08;21.30;99.90
21184;DHT22;18176;49.502;11.754;2022-08-19T08:25:17;21.40;99.90
21184;DHT22;18176;49.502;11.754;2022-08-19T08:29:18;21.50;99.90
21184;DHT22;18176;49.502;11.754;2022-08-19T08:33:19;21.70;99.90
21184;DHT22;18176;49.502;11.754;2022-08-19T08:37:30;21.80;99.90
21184;DHT22;18176;49.502;11.754;2022-08-19T08:41:40;21.90;99.90
21184;DHT22;18176;49.502;11.754;2022-08-19T08:45:49;22.10;99.90
21184;DHT22;18176;49.502;11.754;2022-08-19T08:54:14;22.20;99.90
21184;DHT22;18176;49.502;11.754;2022-08-19T08:58:54;22.00;99.90
21184;DHT22;18176;49.502;11.754;2022-08-19T09:02:57;21.80;99.90
21184;DHT22;18176;49.502;11.754;2022-08-19T09:16:27;22.30;99.90
21184;DHT22;18176;49.502;11.754;2022-08-19T09:20:25;22.40;99.90
21184;DHT22;18176;49.502;11.754;2022-08-19T09:24:22;22.80;99.90
21184;DHT22;18176;49.502;11.754;2022-08-19T09:28:26;23.10;99.90
21184;DHT22;18176;49.502;11.754;2022-08-19T09:32:27;23.20;99.90
21184;DHT22;18176;49.502;11.754;2022-08-19T09:36:27;23.60;99.90
21184;DHT22;18176;49.502;11.754;2022-08-19T09:40:31;24.10;99.90
21184;DHT22;18176;49.502;11.754;2022-08-19T09:44:33;24.50;99.90
21184;DHT22;18176;49.502;11.754;2022-08-19T09:48:32;25.00;99.90
21184;DHT22;18176;49.502;11.754;2022-08-19T09:52:29;25.40;99.90
21184;DHT22;18176;49.502;11.754;2022-08-19T09:56:29;25.00;99.90
21184;DHT22;18176;49.502;11.754;2022-08-19T10:00:27;24.40;99.90
21184;DHT22;18176;49.502;11.754;2022-08-19T10:04:24;23.80;99.90
21184;DHT22;18176;49.502;11.754;2022-08-19T10:08:41;23.40;99.90
21184;DHT22;18176;49.502;11.754;2022-08-19T10:12:46;23.10;99.90
21184;DHT22;18176;49.502;11.754;2022-08-19T10:16:44;23.10;99.90
21184;DHT22;18176;49.502;11.754;2022-08-19T10:20:41;23.20;99.90
21184;DHT22;18176;49.502;11.754;2022-08-19T10:24:39;24.10;99.90
21184;DHT22;18176;49.502;11.754;2022-08-19T10:28:37;24.80;99.90
21184;DHT22;18176;49.502;11.754;2022-08-19T10:32:34;24.90;99.90
21184;DHT22;18176;49.502;11.754;2022-08-19T10:36:34;24.80;99.90
21184;DHT22;18176;49.502;11.754;2022-08-19T10:40:51;24.90;99.90
21184;DHT22;18176;49.502;11.754;2022-08-19T10:44:49;25.20;99.90
21184;DHT22;18176;49.502;11.754;2022-08-19T10:48:48;25.20;99.90
21184;DHT22;18176;49.502;11.754;2022-08-19T10:52:48;24.80;99.90
21184;DHT22;18176;49.502;11.754;2022-08-19T10:56:50;24.10;99.90
21184;DHT22;18176;49.502;11.754;2022-08-19T11:00:55;23.70;99.90
21184;DHT22;18176;49.502;11.754;2022-08-19T11:04:55;23.20;99.90
21184;DHT22;18176;49.502;11.754;2022-08-19T11:08:54;22.90;99.90
21184;DHT22;18176;49.502;11.754;2022-08-19T11:12:51;22.90;99.90
21184;DHT22;18176;49.502;11.754;2022-08-19T11:16:52;22.80;99.90
21184;DHT22;18176;49.502;11.754;2022-08-19T11:20:52;22.80;99.90
21184;DHT22;18176;49.502;11.754;2022-08-19T11:24:49;22.90;99.90
21184;DHT22;18176;49.502;11.754;2022-08-19T11:28:47;23.00;99.90
21184;DHT22;18176;49.502;11.754;2022-08-19T11:32:44;23.10;99.90
21184;DHT22;18176;49.502;11.754;2022-08-19T11:36:48;22.90;99.90
21184;DHT22;18176;49.502;11.754;2022-08-19T11:41:15;23.20;99.90
21184;DHT22;18176;49.502;11.754;2022-08-19T11:45:16;23.20;99.90
21184;DHT22;18176;49.502;11.754;2022-08-19T11:49:20;23.30;99.90
21184;DHT22;18176;49.502;11.754;2022-08-19T11:53:19;23.30;99.90
21184;DHT22;18176;49.502;11.754;2022-08-19T11:57:16;23.10;99.90
21184;DHT22;18176;49.502;11.754;2022-08-19T12:01:16;23.00;99.90
21184;DHT22;18176;49.502;11.754;2022-08-19T12:05:15;23.20;99.90
21184;DHT22;18176;49.502;11.754;2022-08-19T12:09:12;23.10;99.90
21184;DHT22;18176;49.502;11.754;2022-08-19T12:13:11;22.30;99.90
21184;DHT22;18176;49.502;11.754;2022-08-19T12:17:15;21.50;99.90
21184;DHT22;18176;49.502;11.754;2022-08-19T12:21:17;21.00;99.90
21184;DHT22;18176;49.502;11.754;2022-08-19T12:25:20;20.60;99.90
21184;DHT22;18176;49.502;11.754;2022-08-19T12:29:20;20.40;99.90
21184;DHT22;18176;49.502;11.754;2022-08-19T12:33:20;20.20;99.90
21184;DHT22;18176;49.502;11.754;2022-08-19T12:37:21;19.90;99.90
21184;DHT22;18176;49.502;11.754;2022-08-19T12:41:21;19.80;99.90
21184;DHT22;18176;49.502;11.754;2022-08-19T12:45:18;19.90;99.90
21184;DHT22;18176;49.502;11.754;2022-08-19T12:49:16;20.20;99.90
21184;DHT22;18176;49.502;11.754;2022-08-19T12:53:34;20.40;99.90
21184;DHT22;18176;49.502;11.754;2022-08-19T12:57:35;20.50;99.90
21184;DHT22;18176;49.502;11.754;2022-08-19T13:01:32;20.50;99.90
21184;DHT22;18176;49.502;11.754;2022-08-19T13:05:31;20.40;99.90
21184;DHT22;18176;49.502;11.754;2022-08-19T13:09:32;20.30;99.90
21184;DHT22;18176;49.502;11.754;2022-08-19T13:13:30;20.40;99.90
21184;DHT22;18176;49.502;11.754;2022-08-19T13:17:27;20.50;99.90
21184;DHT22;18176;49.502;11.754;2022-08-19T13:21:26;20.60;99.90
21184;DHT22;18176;49.502;11.754;2022-08-19T13:25:26;20.50;99.90
21184;DHT22;18176;49.502;11.754;2022-08-19T13:29:24;20.60;99.90
21184;DHT22;18176;49.502;11.754;2022-08-19T13:33:39;20.80;99.90
21184;DHT22;18176;49.502;11.754;2022-08-19T13:37:39;20.90;99.90
21184;DHT22;18176;49.502;11.754;2022-08-19T13:41:44;21.00;99.90
21184;DHT22;18176;49.502;11.754;2022-08-19T13:45:44;21.10;99.90
21184;DHT22;18176;49.502;11.754;2022-08-19T13:49:42;21.00;99.90
21184;DHT22;18176;49.502;11.754;2022-08-19T13:53:39;21.00;99.90
21184;DHT22;18176;49.502;11.754;2022-08-19T13:57:43;21.00;99.90
21184;DHT22;18176;49.502;11.754;2022-08-19T14:01:40;21.00;99.90
21184;DHT22;18176;49.502;11.754;2022-08-19T14:05:38;20.90;99.90
21184;DHT22;18176;49.502;11.754;2022-08-19T14:09:35;20.70;99.90
21184;DHT22;18176;49.502;11.754;2022-08-19T14:13:32;20.50;99.90
21184;DHT22;18176;49.502;11.754;2022-08-19T14:17:30;20.50;99.90
21184;DHT22;18176;49.502;11.754;2022-08-19T14:21:27;20.30;99.90
21184;DHT22;18176;49.502;11.754;2022-08-19T14:25:27;20.30;99.90
21184;DHT22;18176;49.502;11.754;2022-08-19T14:29:26;20.30;99.90
21184;DHT22;18176;49.502;11.754;2022-08-19T14:33:25;20.30;99.90
21184;DHT22;18176;49.502;11.754;2022-08-19T14:37:24;20.40;99.90
21184;DHT22;18176;49.502;11.754;2022-08-19T14:41:24;20.20;99.90
21184;DHT22;18176;49.502;11.754;2022-08-19T14:45:21;20.10;99.90
21184;DHT22;18176;49.502;11.754;2022-08-19T14:49:18;19.90;99.90
21184;DHT22;18176;49.502;11.754;2022-08-19T14:53:16;19.90;99.90
21184;DHT22;18176;49.502;11.754;2022-08-19T14:57:14;19.90;99.90
21184;DHT22;18176;49.502;11.754;2022-08-19T15:01:12;20.00;99.90
21184;DHT22;18176;49.502;11.754;2022-08-19T15:05:10;20.10;99.90
21184;DHT22;18176;49.502;11.754;2022-08-19T15:09:09;20.10;99.90
21184;DHT22;18176;49.502;11.754;2022-08-19T15:13:06;20.00;99.90
21184;DHT22;18176;49.502;11.754;2022-08-19T15:17:04;19.90;99.90
21184;DHT22;18176;49.502;11.754;2022-08-19T15:21:02;19.90;99.90
21184;DHT22;18176;49.502;11.754;2022-08-19T15:25:00;19.80;99.90
21184;DHT22;18176;49.502;11.754;2022-08-19T15:28:59;19.80;99.90
21184;DHT22;18176;49.502;11.754;2022-08-19T15:32:57;19.80;99.90
21184;DHT22;18176;49.502;11.754;2022-08-19T15:36:54;19.70;99.90
21184;DHT22;18176;49.502;11.754;2022-08-19T15:40:52;19.70;99.90
21184;DHT22;18176;49.502;11.754;2022-08-19T15:44:49;19.60;99.90
21184;DHT22;18176;49.502;11.754;2022-08-19T15:48:51;19.60;99.90
21184;DHT22;18176;49.502;11.754;2022-08-19T15:52:55;19.60;99.90
21184;DHT22;18176;49.502;11.754;2022-08-19T15:56:57;19.50;99.90
21184;DHT22;18176;49.502;11.754;2022-08-19T16:01:13;19.40;99.90
21184;DHT22;18176;49.502;11.754;2022-08-19T16:05:36;19.30;99.90
21184;DHT22;18176;49.502;11.754;2022-08-19T16:09:52;19.30;99.90
21184;DHT22;18176;49.502;11.754;2022-08-19T16:13:49;19.30;99.90
21184;DHT22;18176;49.502;11.754;2022-08-19T16:17:48;19.40;99.90
21184;DHT22;18176;49.502;11.754;2022-08-19T16:21:54;19.30;99.90
21184;DHT22;18176;49.502;11.754;2022-08-19T16:25:52;19.20;99.90
21184;DHT22;18176;49.502;11.754;2022-08-19T16:29:49;19.10;99.90
21184;DHT22;18176;49.502;11.754;2022-08-19T16:33:47;19.00;99.90
21184;DHT22;18176;49.502;11.754;2022-08-19T16:37:45;18.90;99.90
21184;DHT22;18176;49.502;11.754;2022-08-19T16:41:43;18.90;99.90
21184;DHT22;18176;49.502;11.754;2022-08-19T16:45:41;18.80;99.90
21184;DHT22;18176;49.502;11.754;2022-08-19T16:49:39;18.80;99.90
21184;DHT22;18176;49.502;11.754;2022-08-19T16:53:50;18.70;99.90
21184;DHT22;18176;49.502;11.754;2022-08-19T16:57:49;18.60;99.90
21184;DHT22;18176;49.502;11.754;2022-08-19T17:01:46;18.60;99.90
21184;DHT22;18176;49.502;11.754;2022-08-19T17:05:46;18.60;99.90
21184;DHT22;18176;49.502;11.754;2022-08-19T17:09:45;18.50;99.90
21184;DHT22;18176;49.502;11.754;2022-08-19T17:13:47;18.40;99.90
21184;DHT22;18176;49.502;11.754;2022-08-19T17:17:46;18.40;99.90
21184;DHT22;18176;49.502;11.754;2022-08-19T17:21:43;18.30;99.90
21184;DHT22;18176;49.502;11.754;2022-08-19T17:25:41;18.30;99.90
21184;DHT22;18176;49.502;11.754;2022-08-19T17:29:38;18.30;99.90
21184;DHT22;18176;49.502;11.754;2022-08-19T17:33:40;18.20;99.90
21184;DHT22;18176;49.502;11.754;2022-08-19T17:37:37;18.20;99.90
21184;DHT22;18176;49.502;11.754;2022-08-19T17:41:34;18.20;99.90
21184;DHT22;18176;49.502;11.754;2022-08-19T17:45:32;18.20;99.90
21184;DHT22;18176;49.502;11.754;2022-08-19T17:49:30;18.10;99.90
21184;DHT22;18176;49.502;11.754;2022-08-19T17:53:28;18.10;99.90
21184;DHT22;18176;49.502;11.754;2022-08-19T17:57:26;18.10;99.90
21184;DHT22;18176;49.502;11.754;2022-08-19T18:01:23;18.10;99.90
21184;DHT22;18176;49.502;11.754;2022-08-19T18:05:24;18.10;99.90
21184;DHT22;18176;49.502;11.754;2022-08-19T18:09:26;18.00;99.90
21184;DHT22;18176;49.502;11.754;2022-08-19T18:13:38;18.00;99.90
21184;DHT22;18176;49.502;11.754;2022-08-19T18:17:36;18.00;99.90
21184;DHT22;18176;49.502;11.754;2022-08-19T18:21:33;17.90;99.90
21184;DHT22;18176;49.502;11.754;2022-08-19T18:25:31;17.90;99.90
21184;DHT22;18176;49.502;11.754;2022-08-19T18:29:28;17.90;99.90
21184;DHT22;18176;49.502;11.754;2022-08-19T18:33:28;17.90;99.90
21184;DHT22;18176;49.502;11.754;2022-08-19T18:37:26;17.90;99.90
21184;DHT22;18176;49.502;11.754;2022-08-19T18:41:23;17.90;99.90
21184;DHT22;18176;49.502;11.754;2022-08-19T18:45:40;17.80;99.90
21184;DHT22;18176;49.502;11.754;2022-08-19T18:49:57;17.80;99.90
21184;DHT22;18176;49.502;11.754;2022-08-19T18:53:59;17.80;99.90
21184;DHT22;18176;49.502;11.754;2022-08-19T18:57:56;17.70;99.90
21184;DHT22;18176;49.502;11.754;2022-08-19T19:01:56;17.60;99.90
21184;DHT22;18176;49.502;11.754;2022-08-19T19:05:55;17.70;99.90
21184;DHT22;18176;49.502;11.754;2022-08-19T19:09:54;17.60;99.90
21184;DHT22;18176;49.502;11.754;2022-08-19T19:13:51;17.60;99.90
21184;DHT22;18176;49.502;11.754;2022-08-19T19:17:49;17.60;99.90
21184;DHT22;18176;49.502;11.754;2022-08-19T19:21:47;17.60;99.90
21184;DHT22;18176;49.502;11.754;2022-08-19T19:25:45;17.60;99.90
21184;DHT22;18176;49.502;11.754;2022-08-19T19:29:48;17.50;99.90
21184;DHT22;18176;49.502;11.754;2022-08-19T19:33:48;17.50;99.90
21184;DHT22;18176;49.502;11.754;2022-08-19T19:37:46;17.40;99.90
21184;DHT22;18176;49.502;11.754;2022-08-19T19:41:48;17.40;99.90
21184;DHT22;18176;49.502;11.754;2022-08-19T19:45:45;17.40;99.90
21184;DHT22;18176;49.502;11.754;2022-08-19T19:49:47;17.30;99.90
21184;DHT22;18176;49.502;11.754;2022-08-19T19:54:09;17.30;99.90
21184;DHT22;18176;49.502;11.754;2022-08-19T19:58:09;17.20;99.90
21184;DHT22;18176;49.502;11.754;2022-08-19T20:02:06;17.20;99.90
21184;DHT22;18176;49.502;11.754;2022-08-19T20:06:06;17.20;99.90
21184;DHT22;18176;49.502;11.754;2022-08-19T20:10:04;17.20;99.90
21184;DHT22;18176;49.502;11.754;2022-08-19T20:14:05;17.20;99.90
21184;DHT22;18176;49.502;11.754;2022-08-19T20:18:09;17.10;99.90
21184;DHT22;18176;49.502;11.754;2022-08-19T20:22:08;17.20;99.90
21184;DHT22;18176;49.502;11.754;2022-08-19T20:26:06;17.10;99.90
21184;DHT22;18176;49.502;11.754;2022-08-19T20:30:23;17.20;99.90
21184;DHT22;18176;49.502;11.754;2022-08-19T20:34:20;17.20;99.90
21184;DHT22;18176;49.502;11.754;2022-08-19T20:38:18;17.20;99.90
21184;DHT22;18176;49.502;11.754;2022-08-19T20:42:16;17.10;99.90
21184;DHT22;18176;49.502;11.754;2022-08-19T20:46:13;17.00;99.90
21184;DHT22;18176;49.502;11.754;2022-08-19T20:50:11;17.10;99.90
21184;DHT22;18176;49.502;11.754;2022-08-19T20:54:08;17.10;99.90
21184;DHT22;18176;49.502;11.754;2022-08-19T20:58:05;17.10;99.90
21184;DHT22;18176;49.502;11.754;2022-08-19T21:02:02;17.00;99.90
21184;DHT22;18176;49.502;11.754;2022-08-19T21:05:59;17.00;99.90
21184;DHT22;18176;49.502;11.754;2022-08-19T21:09:57;17.00;99.90
21184;DHT22;18176;49.502;11.754;2022-08-19T21:13:54;17.00;99.90
21184;DHT22;18176;49.502;11.754;2022-08-19T21:17:52;17.00;99.90
21184;DHT22;18176;49.502;11.754;2022-08-19T21:21:49;17.00;99.90
21184;DHT22;18176;49.502;11.754;2022-08-19T21:25:49;16.90;99.90
21184;DHT22;18176;49.502;11.754;2022-08-19T21:29:51;17.00;99.90
21184;DHT22;18176;49.502;11.754;2022-08-19T21:33:50;16.90;99.90
21184;DHT22;18176;49.502;11.754;2022-08-19T21:37:47;16.90;99.90
21184;DHT22;18176;49.502;11.754;2022-08-19T21:41:45;16.90;99.90
21184;DHT22;18176;49.502;11.754;2022-08-19T21:45:42;16.90;99.90
21184;DHT22;18176;49.502;11.754;2022-08-19T21:49:39;16.80;99.90
21184;DHT22;18176;49.502;11.754;2022-08-19T21:53:36;16.80;99.90
21184;DHT22;18176;49.502;11.754;2022-08-19T21:57:33;16.80;99.90
21184;DHT22;18176;49.502;11.754;2022-08-19T22:01:31;16.80;99.90
21184;DHT22;18176;49.502;11.754;2022-08-19T22:05:29;16.70;99.90
21184;DHT22;18176;49.502;11.754;2022-08-19T22:09:28;16.70;99.90
21184;DHT22;18176;49.502;11.754;2022-08-19T22:13:26;16.60;99.90
21184;DHT22;18176;49.502;11.754;2022-08-19T22:17:24;16.60;99.90
21184;DHT22;18176;49.502;11.754;2022-08-19T22:21:23;16.50;99.90
21184;DHT22;18176;49.502;11.754;2022-08-19T22:25:39;16.50;99.90
21184;DHT22;18176;49.502;11.754;2022-08-19T22:29:39;16.50;99.90
21184;DHT22;18176;49.502;11.754;2022-08-19T22:33:38;16.40;99.90
21184;DHT22;18176;49.502;11.754;2022-08-19T22:37:35;16.40;99.90
21184;DHT22;18176;49.502;11.754;2022-08-19T22:41:32;16.40;99.90
21184;DHT22;18176;49.502;11.754;2022-08-19T22:45:30;16.40;99.90
21184;DHT22;18176;49.502;11.754;2022-08-19T22:49:29;16.40;99.90
21184;DHT22;18176;49.502;11.754;2022-08-19T22:53:26;16.40;99.90
21184;DHT22;18176;49.502;11.754;2022-08-19T22:57:23;16.40;99.90
21184;DHT22;18176;49.502;11.754;2022-08-19T23:01:21;16.40;99.90
21184;DHT22;18176;49.502;11.754;2022-08-19T23:05:27;16.40;99.90
21184;DHT22;18176;49.502;11.754;2022-08-19T23:09:25;16.40;99.90
21184;DHT22;18176;49.502;11.754;2022-08-19T23:13:26;16.40;99.90
21184;DHT22;18176;49.502;11.754;2022-08-19T23:17:24;16.40;99.90
21184;DHT22;18176;49.502;11.754;2022-08-19T23:21:21;16.40;99.90
21184;DHT22;18176;49.502;11.754;2022-08-19T23:25:29;16.40;99.90
21184;DHT22;18176;49.502;11.754;2022-08-19T23:29:27;16.40;99.90
21184;DHT22;18176;49.502;11.754;2022-08-19T23:33:44;16.40;99.90
21184;DHT22;18176;49.502;11.754;2022-08-19T23:37:47;16.40;99.90
21184;DHT22;18176;49.502;11.754;2022-08-19T23:41:45;16.30;99.90
21184;DHT22;18176;49.502;11.754;2022-08-19T23:45:43;16.30;99.90
21184;DHT22;18176;49.502;11.754;2022-08-19T23:49:46;16.30;99.90
21184;DHT22;18176;49.502;11.754;2022-08-19T23:53:44;16.30;99.90
21184;DHT22;18176;49.502;11.754;2022-08-19T23:57:41;16.30;99.90
